createdAt,value
2022-10-03T00:02:41.092Z,4.63
2022-10-03T00:05:31.014Z,3.65
2022-10-03T00:08:18.520Z,5.75
2022-10-03T00:11:02.994Z,2.75
2022-10-03T00:13:43.382Z,3.20
2022-10-03T00:16:19.770Z,4.82
2022-10-03T00:18:57.455Z,4.63
2022-10-03T00:21:42.577Z,3.53
2022-10-03T00:24:25.038Z,1.92
2022-10-03T00:26:58.562Z,2.70
2022-10-03T00:29:51.373Z,2.35
2022-10-03T00:32:41.214Z,2.60
2022-10-03T00:35:24.798Z,1.70
2022-10-03T00:38:17.454Z,2.50
2022-10-03T00:41:21.216Z,2.78
2022-10-03T00:44:23.599Z,3.65
2022-10-03T00:47:29.724Z,2.42
2022-10-03T00:50:32.137Z,2.75
2022-10-03T00:53:21.636Z,2.63
2022-10-03T00:56:08.062Z,2.33
2022-10-03T00:58:58.488Z,1.50
2022-10-03T01:01:38.483Z,4.68
2022-10-03T01:04:40.861Z,11.40
2022-10-03T01:07:25.200Z,4.55
2022-10-03T01:10:12.453Z,3.38
2022-10-03T01:13:07.301Z,3.03
2022-10-03T01:15:49.789Z,2.95
2022-10-03T01:18:28.970Z,2.30
2022-10-03T01:21:12.577Z,4.45
2022-10-03T01:24:20.660Z,2.78
2022-10-03T01:26:59.879Z,3.60
2022-10-03T01:30:03.701Z,2.60
2022-10-03T01:32:41.511Z,4.93
2022-10-03T01:35:24.199Z,2.60
2022-10-03T01:38:01.757Z,18.13
2022-10-03T01:40:37.145Z,8.45
2022-10-03T01:43:17.632Z,18.73
2022-10-03T01:46:00.243Z,8.60
2022-10-03T01:48:38.100Z,4.28
2022-10-03T01:51:12.897Z,4.57
2022-10-03T01:53:58.495Z,7.43
2022-10-03T01:56:35.464Z,3.28
2022-10-03T01:59:09.208Z,3.83
2022-10-03T02:01:52.084Z,2.40
2022-10-03T02:04:37.480Z,5.95
2022-10-03T02:07:21.539Z,3.42
2022-10-03T02:10:04.460Z,3.85
2022-10-03T02:12:40.715Z,2.63
2022-10-03T02:15:22.014Z,4.47
2022-10-03T02:17:59.292Z,2.72
2022-10-03T02:20:39.980Z,4.72
2022-10-03T02:23:41.068Z,2.35
2022-10-03T02:26:47.809Z,3.58
2022-10-03T02:29:49.415Z,2.95
2022-10-03T02:33:05.824Z,4.13
2022-10-03T02:36:30.869Z,5.50
2022-10-03T02:39:35.800Z,3.75
2022-10-03T02:42:44.024Z,4.30
2022-10-03T02:45:51.834Z,4.93
2022-10-03T02:48:58.004Z,5.60
2022-10-03T02:52:06.832Z,3.58
2022-10-03T02:55:08.757Z,5.10
2022-10-03T02:58:21.640Z,4.45
2022-10-03T03:01:24.136Z,2.97
2022-10-03T03:04:23.802Z,4.63
2022-10-03T03:10:08.991Z,3.63
2022-10-03T03:13:07.154Z,3.13
2022-10-03T03:16:38.554Z,5.35
2022-10-03T03:19:22.217Z,5.22
2022-10-03T03:21:59.400Z,3.08
2022-10-03T03:24:51.358Z,3.75
2022-10-03T03:27:42.778Z,4.53
2022-10-03T03:30:15.245Z,9.05
2022-10-03T03:33:02.846Z,6.80
2022-10-03T03:35:48.985Z,5.03
2022-10-03T03:38:38.346Z,7.38
2022-10-03T03:41:22.483Z,3.78
2022-10-03T03:44:14.957Z,7.13
2022-10-03T03:47:01.508Z,5.68
2022-10-03T03:49:47.408Z,6.57
2022-10-03T03:52:37.457Z,7.30
2022-10-03T03:55:25.226Z,6.30
2022-10-03T03:58:19.186Z,4.63
2022-10-03T04:01:08.777Z,4.90
2022-10-03T04:03:51.270Z,6.72
2022-10-03T04:06:47.121Z,6.05
2022-10-03T04:09:50.715Z,6.80
2022-10-03T04:12:31.844Z,7.13
2022-10-03T04:15:30.343Z,7.10
2022-10-03T04:18:45.919Z,6.88
2022-10-03T04:21:31.768Z,9.27
2022-10-03T04:24:37.849Z,7.45
2022-10-03T04:27:26.831Z,6.05
2022-10-03T04:30:07.686Z,6.25
2022-10-03T04:32:57.349Z,7.05
2022-10-03T04:36:07.195Z,8.07
2022-10-03T04:38:47.151Z,10.43
2022-10-03T04:41:30.022Z,10.23
2022-10-03T04:44:11.997Z,5.55
2022-10-03T04:46:49.450Z,6.18
2022-10-03T04:49:28.109Z,6.18
2022-10-03T04:52:03.878Z,5.72
2022-10-03T04:54:48.476Z,4.68
2022-10-03T04:57:30.413Z,6.25
2022-10-03T05:00:15.229Z,6.35
2022-10-03T05:02:52.614Z,4.53
2022-10-03T05:05:41.495Z,6.88
2022-10-03T05:08:31.227Z,7.07
2022-10-03T05:11:16.641Z,6.50
2022-10-03T05:14:01.107Z,7.03
2022-10-03T05:16:42.406Z,6.80
2022-10-03T05:19:41.676Z,6.60
2022-10-03T05:22:23.658Z,6.28
2022-10-03T05:25:03.255Z,6.15
2022-10-03T05:27:43.420Z,7.22
2022-10-03T05:30:20.612Z,7.28
2022-10-03T05:32:55.815Z,7.82
2022-10-03T05:35:39.041Z,10.52
2022-10-03T05:38:34.221Z,6.72
2022-10-03T05:41:06.213Z,8.55
2022-10-03T05:43:54.451Z,10.98
2022-10-03T05:46:55.244Z,6.70
2022-10-03T05:49:58.555Z,7.38
2022-10-03T05:52:50.453Z,8.45
2022-10-03T05:55:38.508Z,8.48
2022-10-03T05:58:34.817Z,6.20
2022-10-03T06:01:45.689Z,6.68
2022-10-03T06:04:54.021Z,8.38
2022-10-03T06:07:29.340Z,7.03
2022-10-03T06:10:32.227Z,8.73
2022-10-03T06:13:13.781Z,6.32
2022-10-03T06:15:56.078Z,9.48
2022-10-03T06:18:55.330Z,10.30
2022-10-03T06:21:58.607Z,6.35
2022-10-03T06:25:01.993Z,9.23
2022-10-03T06:28:18.309Z,7.68
2022-10-03T06:31:32.168Z,6.53
2022-10-03T06:34:32.567Z,7.72
2022-10-03T06:37:50.894Z,6.45
2022-10-03T06:40:48.953Z,8.98
2022-10-03T06:43:43.784Z,9.80
2022-10-03T06:46:48.575Z,5.05
2022-10-03T06:50:09.947Z,5.05
2022-10-03T06:53:07.887Z,6.95
2022-10-03T06:56:16.071Z,4.22
2022-10-03T06:59:06.232Z,3.08
2022-10-03T07:02:18.260Z,4.18
2022-10-03T07:05:20.566Z,5.40
2022-10-03T07:08:21.025Z,3.90
2022-10-03T07:14:01.815Z,3.38
2022-10-03T07:17:17.925Z,3.13
2022-10-03T07:20:11.521Z,2.67
2022-10-03T07:23:37.910Z,3.47
2022-10-03T07:26:39.295Z,1.75
2022-10-03T07:29:22.683Z,9.65
2022-10-03T07:32:11.691Z,3.58
2022-10-03T07:35:51.619Z,3.40
2022-10-03T07:39:01.048Z,2.50
2022-10-03T07:42:01.213Z,2.85
2022-10-03T07:45:19.732Z,1.92
2022-10-03T07:48:31.094Z,2.90
2022-10-03T07:51:15.384Z,2.25
2022-10-03T07:54:16.687Z,4.13
2022-10-03T07:57:16.642Z,5.82
2022-10-03T08:00:12.090Z,3.90
2022-10-03T08:03:26.629Z,2.85
2022-10-03T08:06:16.435Z,4.07
2022-10-03T08:09:15.407Z,5.78
2022-10-03T08:12:20.295Z,4.45
2022-10-03T08:15:03.443Z,6.22
2022-10-03T08:18:07.527Z,5.75
2022-10-03T08:20:50.942Z,2.97
2022-10-03T08:23:58.418Z,3.70
2022-10-03T08:26:50.332Z,3.55
2022-10-03T08:29:59.964Z,2.58
2022-10-03T08:32:58.598Z,3.85
2022-10-03T08:36:08.581Z,1.73
2022-10-03T08:39:22.253Z,5.10
2022-10-03T08:42:28.301Z,1.88
2022-10-03T08:45:33.290Z,2.20
2022-10-03T08:48:46.141Z,6.80
2022-10-03T08:51:50.570Z,3.65
2022-10-03T08:55:02.175Z,3.08
2022-10-03T08:57:59.890Z,2.67
2022-10-03T09:00:38.705Z,3.40
2022-10-03T09:03:52.976Z,5.57
2022-10-03T09:07:16.970Z,2.03
2022-10-03T09:10:36.597Z,3.08
2022-10-03T09:13:52.559Z,2.10
2022-10-03T09:16:55.170Z,3.72
2022-10-03T09:19:52.472Z,2.70
2022-10-03T09:22:51.366Z,4.70
2022-10-03T09:25:40.717Z,3.75
2022-10-03T09:28:37.410Z,2.78
2022-10-03T09:31:29.097Z,7.10
2022-10-03T09:34:11.232Z,3.63
2022-10-03T09:37:12.993Z,3.80
2022-10-03T09:40:17.234Z,4.70
2022-10-03T09:43:06.068Z,11.80
2022-10-03T09:46:08.270Z,3.88
2022-10-03T09:49:13.536Z,3.65
2022-10-03T09:51:54.807Z,6.25
2022-10-03T09:54:47.698Z,4.82
2022-10-03T09:57:59.231Z,4.60
2022-10-03T10:00:36.398Z,4.43
2022-10-03T10:03:29.179Z,4.22
2022-10-03T10:06:48.981Z,3.03
2022-10-03T10:09:57.358Z,3.83
2022-10-03T10:13:01.861Z,2.63
2022-10-03T10:15:58.214Z,2.92
2022-10-03T10:19:09.273Z,4.32
2022-10-03T10:22:11.763Z,5.25
2022-10-03T10:25:14.295Z,2.25
2022-10-03T10:28:20.688Z,3.47
2022-10-03T10:31:24.608Z,2.60
2022-10-03T10:34:32.561Z,3.10
2022-10-03T10:37:46.566Z,5.63
2022-10-03T10:40:49.217Z,3.33
2022-10-03T10:43:58.249Z,4.20
2022-10-03T10:47:15.492Z,4.35
2022-10-03T10:50:32.111Z,4.78
2022-10-03T10:53:43.760Z,5.63
2022-10-03T10:56:56.571Z,4.18
2022-10-03T11:00:15.221Z,3.53
2022-10-03T11:03:43.253Z,3.90
2022-10-03T11:06:45.811Z,4.13
2022-10-03T11:09:50.463Z,3.65
2022-10-03T11:13:00.898Z,2.95
2022-10-03T11:18:59.603Z,4.10
2022-10-03T11:22:00.770Z,2.97
2022-10-03T11:25:10.636Z,15.63
2022-10-03T11:28:26.406Z,2.67
2022-10-03T11:31:46.398Z,5.75
2022-10-03T11:34:57.946Z,5.35
2022-10-03T11:37:39.369Z,2.10
2022-10-03T11:40:37.147Z,3.10
2022-10-03T11:43:52.863Z,3.17
2022-10-03T11:46:37.998Z,4.72
2022-10-03T11:49:22.532Z,4.22
2022-10-03T11:52:06.251Z,4.13
2022-10-03T11:54:40.744Z,4.50
2022-10-03T11:57:18.201Z,2.35
2022-10-03T12:00:01.168Z,3.10
2022-10-03T12:03:01.003Z,2.58
2022-10-03T12:05:44.283Z,2.13
2022-10-03T12:08:40.720Z,5.45
2022-10-03T12:11:17.774Z,4.15
2022-10-03T12:14:10.867Z,5.43
2022-10-03T12:16:57.827Z,3.58
2022-10-03T12:19:32.634Z,4.60
2022-10-03T12:22:11.093Z,3.75
2022-10-03T12:24:45.223Z,4.30
2022-10-03T12:27:23.224Z,4.63
2022-10-03T12:29:59.503Z,4.85
2022-10-03T12:32:38.184Z,4.28
2022-10-03T12:35:21.787Z,2.40
2022-10-03T12:38:07.977Z,2.55
2022-10-03T12:40:41.920Z,2.40
2022-10-03T12:43:27.034Z,2.97
2022-10-03T12:46:04.183Z,3.47
2022-10-03T12:48:45.999Z,4.25
2022-10-03T12:51:27.421Z,2.80
2022-10-03T12:54:10.811Z,3.30
2022-10-03T12:56:49.593Z,3.33
2022-10-03T12:59:32.855Z,3.60
2022-10-03T13:02:26.253Z,3.45
2022-10-03T13:05:18.825Z,2.42
2022-10-03T13:07:56.790Z,2.97
2022-10-03T13:10:37.086Z,2.30
2022-10-03T13:16:14.925Z,2.45
2022-10-03T13:19:06.464Z,2.28
2022-10-03T13:22:03.367Z,2.63
2022-10-03T13:24:40.071Z,3.03
2022-10-03T13:27:27.026Z,2.55
2022-10-03T13:30:05.309Z,1.77
2022-10-03T13:32:38.253Z,2.17
2022-10-03T13:35:46.040Z,6.35
2022-10-03T13:38:23.716Z,4.63
2022-10-03T13:41:00.969Z,5.88
2022-10-03T13:43:36.555Z,4.68
2022-10-03T13:46:14.537Z,4.32
2022-10-03T13:48:49.228Z,3.35
2022-10-03T13:51:29.257Z,4.10
2022-10-03T13:54:05.056Z,4.43
2022-10-03T13:56:51.371Z,3.63
2022-10-03T13:59:42.393Z,4.07
2022-10-03T14:02:42.091Z,4.57
2022-10-03T14:05:40.203Z,6.55
2022-10-03T14:08:18.778Z,3.60
2022-10-03T14:11:08.924Z,2.95
2022-10-03T14:13:54.625Z,4.10
2022-10-03T14:16:30.708Z,2.80
2022-10-03T14:19:15.767Z,2.55
2022-10-03T14:22:22.755Z,6.93
2022-10-03T14:25:20.682Z,4.82
2022-10-03T14:27:54.389Z,5.93
2022-10-03T14:30:26.403Z,2.95
2022-10-03T14:33:13.185Z,4.45
2022-10-03T14:35:49.769Z,4.40
2022-10-03T14:39:01.919Z,3.63
2022-10-03T14:41:45.139Z,6.57
2022-10-03T14:44:18.695Z,9.68
2022-10-03T14:46:52.303Z,3.40
2022-10-03T14:49:53.650Z,4.03
2022-10-03T14:52:29.678Z,4.65
2022-10-03T14:55:04.216Z,3.13
2022-10-03T14:57:58.690Z,4.88
2022-10-03T15:00:38.899Z,4.55
2022-10-03T15:03:30.634Z,4.15
2022-10-03T15:06:18.106Z,5.10
2022-10-03T15:08:50.934Z,5.85
2022-10-03T15:11:27.451Z,5.75
2022-10-03T15:14:03.607Z,5.65
2022-10-03T15:16:37.354Z,4.85
2022-10-03T15:19:11.348Z,5.15
2022-10-03T15:21:46.148Z,6.40
2022-10-03T15:24:25.471Z,5.53
2022-10-03T15:27:02.775Z,5.97
2022-10-03T15:29:34.555Z,5.78
2022-10-03T15:32:08.443Z,6.90
2022-10-03T15:34:42.238Z,6.70
2022-10-03T15:37:18.355Z,7.68
2022-10-03T15:39:48.859Z,5.25
2022-10-03T15:42:26.285Z,7.72
2022-10-03T15:45:01.819Z,5.82
2022-10-03T15:47:34.151Z,6.63
2022-10-03T15:50:08.270Z,7.43
2022-10-03T15:52:43.614Z,9.35
2022-10-03T15:55:20.379Z,8.10
2022-10-03T15:57:54.049Z,10.27
2022-10-03T16:00:28.827Z,10.35
2022-10-03T16:03:09.524Z,7.70
2022-10-03T16:05:45.084Z,8.95
2022-10-03T16:08:22.012Z,11.63
2022-10-03T16:11:06.460Z,9.52
2022-10-03T16:13:39.881Z,10.25
2022-10-03T16:16:19.462Z,11.13
2022-10-03T16:19:03.615Z,12.18
2022-10-03T16:21:43.675Z,11.25
2022-10-03T16:27:07.465Z,11.52
2022-10-03T16:29:39.307Z,9.60
2022-10-03T16:32:16.421Z,9.68
2022-10-03T16:34:48.525Z,9.93
2022-10-03T16:37:21.308Z,11.27
2022-10-03T16:40:00.926Z,10.73
2022-10-03T16:42:41.161Z,11.48
2022-10-03T16:45:23.314Z,11.30
2022-10-03T16:48:10.222Z,10.88
2022-10-03T16:50:45.976Z,12.30
2022-10-03T16:53:18.133Z,11.48
2022-10-03T16:55:50.559Z,10.43
2022-10-03T16:58:25.203Z,10.27
2022-10-03T17:01:25.255Z,10.70
2022-10-03T17:03:57.878Z,10.05
2022-10-03T17:06:32.075Z,11.80
2022-10-03T17:09:05.421Z,10.85
2022-10-03T17:11:39.843Z,12.07
2022-10-03T17:14:11.023Z,12.07
2022-10-03T17:16:47.685Z,14.95
2022-10-03T17:19:32.183Z,19.23
2022-10-03T17:22:13.636Z,16.55
2022-10-03T17:24:49.547Z,15.05
2022-10-03T17:27:29.493Z,23.17
2022-10-03T17:30:04.356Z,24.67
2022-10-03T17:32:38.893Z,21.02
2022-10-03T17:35:16.548Z,18.65
2022-10-03T17:38:44.504Z,15.73
2022-10-03T17:41:17.201Z,23.75
2022-10-03T17:43:57.416Z,14.18
2022-10-03T17:49:08.379Z,32.95
2022-10-03T17:51:43.158Z,22.25
2022-10-03T17:54:17.222Z,11.98
2022-10-03T17:56:53.220Z,7.93
2022-10-03T17:59:28.445Z,9.27
2022-10-03T18:02:03.368Z,11.23
2022-10-03T18:04:38.419Z,8.50
2022-10-03T18:07:14.045Z,15.23
2022-10-03T18:09:48.198Z,8.18
2022-10-03T18:12:30.112Z,7.72
2022-10-03T18:15:53.416Z,9.43
2022-10-03T18:19:00.735Z,9.95
2022-10-03T18:21:44.453Z,11.27
2022-10-03T18:24:29.147Z,8.05
2022-10-03T18:27:11.634Z,9.05
2022-10-03T18:29:50.595Z,11.15
2022-10-03T18:32:24.770Z,11.45
2022-10-03T18:35:04.346Z,9.75
2022-10-03T18:38:16.066Z,10.52
2022-10-03T18:40:53.637Z,9.98
2022-10-03T18:43:35.722Z,11.88
2022-10-03T18:46:16.427Z,8.30
2022-10-03T18:49:30.142Z,7.28
2022-10-03T18:52:00.375Z,8.18
2022-10-03T18:54:42.514Z,7.43
2022-10-03T18:57:20.155Z,10.18
2022-10-03T18:59:56.129Z,5.82
2022-10-03T19:02:33.331Z,5.78
2022-10-03T19:05:10.820Z,6.40
2022-10-03T19:07:45.761Z,6.63
2022-10-03T19:10:31.672Z,6.63
2022-10-03T19:13:16.779Z,7.63
2022-10-03T19:16:16.638Z,6.72
2022-10-03T19:18:55.244Z,10.00
2022-10-03T19:21:25.510Z,8.85
2022-10-03T19:26:35.500Z,7.60
2022-10-03T19:29:11.566Z,5.35
2022-10-03T19:31:47.153Z,4.97
2022-10-03T19:34:22.486Z,7.65
2022-10-03T19:36:53.093Z,7.18
2022-10-03T19:39:24.174Z,7.40
2022-10-03T19:41:57.144Z,5.93
2022-10-03T19:44:29.893Z,5.15
2022-10-03T19:47:06.525Z,5.65
2022-10-03T19:50:00.751Z,5.78
2022-10-03T19:52:32.193Z,7.65
2022-10-03T19:55:05.306Z,5.40
2022-10-03T19:57:43.215Z,8.82
2022-10-03T20:00:29.004Z,6.47
2022-10-03T20:03:07.341Z,6.35
2022-10-03T20:05:43.278Z,5.82
2022-10-03T20:08:23.677Z,5.60
2022-10-03T20:13:30.702Z,6.32
2022-10-03T20:16:01.763Z,5.90
2022-10-03T20:18:34.616Z,5.50
2022-10-03T20:21:10.167Z,5.22
2022-10-03T20:23:43.273Z,5.75
2022-10-03T20:26:24.229Z,8.50
2022-10-03T20:29:18.683Z,4.35
2022-10-03T20:31:50.478Z,5.70
2022-10-03T20:34:25.121Z,7.60
2022-10-03T20:37:03.473Z,4.93
2022-10-03T20:39:37.603Z,6.05
2022-10-03T20:42:13.817Z,5.57
2022-10-03T20:45:02.757Z,4.22
2022-10-03T20:47:53.187Z,5.68
2022-10-03T20:50:27.988Z,6.72
2022-10-03T20:53:00.846Z,3.17
2022-10-03T20:55:33.444Z,2.92
2022-10-03T20:58:16.293Z,5.10
2022-10-03T21:00:49.416Z,4.82
2022-10-03T21:03:30.713Z,4.90
2022-10-03T21:06:01.850Z,4.10
2022-10-03T21:08:35.454Z,4.53
2022-10-03T21:11:16.339Z,4.97
2022-10-03T21:13:52.080Z,5.55
2022-10-03T21:16:25.045Z,4.97
2022-10-03T21:19:00.708Z,4.93
2022-10-03T21:21:37.403Z,4.22
2022-10-03T21:26:47.875Z,4.68
2022-10-03T21:29:27.724Z,5.50
2022-10-03T21:32:08.550Z,4.90
2022-10-03T21:34:47.223Z,7.05
2022-10-03T21:37:26.023Z,5.43
2022-10-03T21:40:14.426Z,4.72
2022-10-03T21:42:55.118Z,5.60
2022-10-03T21:45:33.520Z,8.05
2022-10-03T21:48:11.643Z,4.35
2022-10-03T21:50:50.920Z,5.80
2022-10-03T21:53:28.804Z,11.25
2022-10-03T21:56:19.564Z,7.43
2022-10-03T21:59:17.318Z,9.38
2022-10-03T22:01:54.250Z,5.90
2022-10-03T22:04:30.273Z,8.40
2022-10-03T22:07:10.061Z,6.57
2022-10-03T22:09:47.428Z,6.90
2022-10-03T22:12:18.600Z,6.32
2022-10-03T22:14:54.363Z,7.05
2022-10-03T22:17:30.500Z,5.90
2022-10-03T22:20:12.738Z,8.20
2022-10-03T22:22:55.574Z,5.78
2022-10-03T22:25:45.144Z,8.13
2022-10-03T22:28:26.961Z,4.57
2022-10-03T22:31:08.239Z,5.75
2022-10-03T22:33:53.345Z,7.00
2022-10-03T22:36:23.099Z,5.30
2022-10-03T22:38:54.740Z,8.15
2022-10-03T22:41:28.923Z,5.93
2022-10-03T22:44:00.632Z,4.20
2022-10-03T22:46:34.288Z,6.05
2022-10-03T22:49:09.386Z,5.20
2022-10-03T22:51:41.257Z,4.53
2022-10-03T22:54:15.510Z,3.75
2022-10-03T22:56:48.288Z,4.38
2022-10-03T22:59:22.537Z,4.13
2022-10-03T23:01:54.549Z,4.03
2022-10-03T23:04:33.891Z,4.10
2022-10-03T23:07:23.415Z,4.82
2022-10-03T23:10:05.717Z,4.38
2022-10-03T23:12:43.236Z,5.53
2022-10-03T23:15:17.013Z,6.30
2022-10-03T23:18:13.211Z,4.25
2022-10-03T23:21:03.644Z,4.15
2022-10-03T23:23:40.875Z,3.60
2022-10-03T23:26:45.639Z,5.30
2022-10-03T23:29:17.242Z,5.25
2022-10-03T23:32:02.669Z,3.33
2022-10-03T23:34:49.382Z,6.65
2022-10-03T23:37:40.517Z,4.15
2022-10-03T23:40:45.346Z,4.63
2022-10-03T23:43:35.100Z,2.72
2022-10-03T23:46:09.855Z,3.63
2022-10-03T23:48:45.181Z,3.83
2022-10-03T23:51:19.796Z,3.17
2022-10-03T23:53:52.173Z,3.63
2022-10-03T23:56:34.272Z,3.40
2022-10-03T23:59:23.445Z,5.35
